createdAt,value
2023-03-07T00:00:27.542Z,34.30
2023-03-07T00:02:55.604Z,36.50
2023-03-07T00:05:25.890Z,36.70
2023-03-07T00:07:54.482Z,39.50
2023-03-07T00:10:22.756Z,35.40
2023-03-07T00:12:52.583Z,35.90
2023-03-07T00:15:20.625Z,31.70
2023-03-07T00:17:50.056Z,33.10
2023-03-07T00:20:18.211Z,34.50
2023-03-07T00:22:47.054Z,36.90
2023-03-07T00:25:15.217Z,35.80
2023-03-07T00:27:44.230Z,35.70
2023-03-07T00:30:15.797Z,34.60
2023-03-07T00:32:43.786Z,33.40
2023-03-07T00:35:11.839Z,31.20
2023-03-07T00:37:39.881Z,36.50
2023-03-07T00:40:09.519Z,31.70
2023-03-07T00:42:38.330Z,37.20
2023-03-07T00:45:07.014Z,32.60
2023-03-07T00:47:35.186Z,35.70
2023-03-07T00:50:04.280Z,28.70
2023-03-07T00:52:33.997Z,32.20
2023-03-07T00:55:02.426Z,30.80
2023-03-07T00:57:32.722Z,29.30
2023-03-07T01:00:00.633Z,33.70
2023-03-07T01:02:28.959Z,30.00
2023-03-07T01:04:58.954Z,32.40
2023-03-07T01:07:27.381Z,31.40
2023-03-07T01:09:57.706Z,30.40
2023-03-07T01:12:26.718Z,33.60
2023-03-07T01:14:55.818Z,31.80
2023-03-07T01:17:23.796Z,31.00
2023-03-07T01:19:51.686Z,32.00
2023-03-07T01:22:19.702Z,30.80
2023-03-07T01:24:48.077Z,30.50
2023-03-07T01:27:16.599Z,31.40
2023-03-07T01:29:44.691Z,32.90
2023-03-07T01:32:12.952Z,30.40
2023-03-07T01:34:41.130Z,29.30
2023-03-07T01:37:09.574Z,29.20
2023-03-07T01:39:39.206Z,34.30
2023-03-07T01:42:10.754Z,28.60
2023-03-07T01:45:02.070Z,28.80
2023-03-07T01:47:43.655Z,28.20
2023-03-07T01:50:16.300Z,29.30
2023-03-07T01:52:57.364Z,29.30
2023-03-07T01:55:29.811Z,29.10
2023-03-07T01:58:07.318Z,27.20
2023-03-07T02:00:38.508Z,31.90
2023-03-07T02:03:15.998Z,29.20
2023-03-07T02:05:51.927Z,28.70
2023-03-07T02:08:20.352Z,27.10
2023-03-07T02:10:51.541Z,28.30
2023-03-07T02:13:19.909Z,29.70
2023-03-07T02:15:50.422Z,29.40
2023-03-07T02:18:21.011Z,31.70
2023-03-07T02:21:12.375Z,29.80
2023-03-07T02:24:02.598Z,30.40
2023-03-07T02:26:30.765Z,27.60
2023-03-07T02:29:02.126Z,28.70
2023-03-07T02:31:31.981Z,25.90
2023-03-07T02:34:00.595Z,29.20
2023-03-07T02:36:33.825Z,32.40
2023-03-07T02:39:21.563Z,26.80
2023-03-07T02:41:55.201Z,27.90
2023-03-07T02:44:32.800Z,30.40
2023-03-07T02:47:02.952Z,28.40
2023-03-07T02:49:32.071Z,37.90
2023-03-07T02:52:00.824Z,30.90
2023-03-07T02:54:29.749Z,32.90
2023-03-07T02:56:58.589Z,33.90
2023-03-07T02:59:26.842Z,33.80
2023-03-07T03:01:55.232Z,29.20
2023-03-07T03:04:23.459Z,29.30
2023-03-07T03:06:51.567Z,39.20
2023-03-07T03:09:19.635Z,36.70
2023-03-07T03:11:51.192Z,32.80
2023-03-07T03:14:20.539Z,35.90
2023-03-07T03:16:49.632Z,34.60
2023-03-07T03:19:18.414Z,38.90
2023-03-07T03:21:46.955Z,39.90
2023-03-07T03:24:15.075Z,36.10
2023-03-07T03:26:43.364Z,37.30
2023-03-07T03:29:11.608Z,38.50
2023-03-07T03:31:40.398Z,40.40
2023-03-07T03:34:09.590Z,31.70
2023-03-07T03:36:37.746Z,33.90
2023-03-07T03:39:11.228Z,34.40
2023-03-07T03:41:45.616Z,36.70
2023-03-07T03:44:13.683Z,32.40
2023-03-07T03:46:41.662Z,35.10
2023-03-07T03:49:13.038Z,37.00
2023-03-07T03:51:42.865Z,28.50
2023-03-07T03:54:11.016Z,30.50
2023-03-07T03:56:39.527Z,30.80
2023-03-07T03:59:08.046Z,29.40
2023-03-07T04:01:36.128Z,30.30
2023-03-07T04:04:05.032Z,28.80
2023-03-07T04:06:34.377Z,29.70
2023-03-07T04:09:04.882Z,32.30
2023-03-07T04:11:34.029Z,29.20
2023-03-07T04:14:03.066Z,34.80
2023-03-07T04:16:35.563Z,34.90
2023-03-07T04:19:03.695Z,25.70
2023-03-07T04:21:32.233Z,31.90
2023-03-07T04:24:07.023Z,26.80
2023-03-07T04:26:36.175Z,27.60
2023-03-07T04:29:04.545Z,24.40
2023-03-07T04:31:36.549Z,27.60
2023-03-07T04:34:06.446Z,27.10
2023-03-07T04:36:34.884Z,29.00
2023-03-07T04:39:02.843Z,29.30
2023-03-07T04:41:32.578Z,26.90
2023-03-07T04:44:26.683Z,25.10
2023-03-07T04:46:54.636Z,25.90
2023-03-07T04:49:22.656Z,28.20
2023-03-07T04:51:50.638Z,28.50
2023-03-07T04:54:21.561Z,24.80
2023-03-07T04:56:51.495Z,26.50
2023-03-07T04:59:21.469Z,25.20
2023-03-07T05:01:50.419Z,24.00
2023-03-07T05:04:18.919Z,27.60
2023-03-07T05:06:48.805Z,26.70
2023-03-07T05:09:16.857Z,27.60
2023-03-07T05:11:45.398Z,23.40
2023-03-07T05:14:13.783Z,26.30
2023-03-07T05:16:42.772Z,25.20
2023-03-07T05:19:11.791Z,25.30
2023-03-07T05:21:59.607Z,29.90
2023-03-07T05:24:27.736Z,28.10
2023-03-07T05:26:55.687Z,28.70
2023-03-07T05:29:23.728Z,26.70
2023-03-07T05:31:51.672Z,29.20
2023-03-07T05:34:20.056Z,26.30
2023-03-07T05:36:48.879Z,24.10
2023-03-07T05:39:17.549Z,24.70
2023-03-07T05:41:45.972Z,27.80
2023-03-07T05:44:15.525Z,28.40
2023-03-07T05:46:43.592Z,26.30
2023-03-07T05:49:11.982Z,27.40
2023-03-07T05:51:39.961Z,26.50
2023-03-07T05:54:07.965Z,24.20
2023-03-07T05:56:40.164Z,27.70
2023-03-07T05:59:11.442Z,26.40
2023-03-07T06:01:44.219Z,26.00
2023-03-07T06:04:12.260Z,26.80
2023-03-07T06:06:40.307Z,21.60
2023-03-07T06:09:10.039Z,23.30
2023-03-07T06:11:38.792Z,24.90
2023-03-07T06:14:13.473Z,24.10
2023-03-07T06:16:41.980Z,24.60
2023-03-07T06:19:10.378Z,26.40
2023-03-07T06:21:39.081Z,23.70
2023-03-07T06:24:07.756Z,24.40
2023-03-07T06:26:35.873Z,26.80
2023-03-07T06:29:04.860Z,26.00
2023-03-07T06:31:33.350Z,22.60
2023-03-07T06:34:01.472Z,26.90
2023-03-07T06:36:32.357Z,27.60
2023-03-07T06:39:01.898Z,33.20
2023-03-07T06:41:30.174Z,49.00
2023-03-07T06:43:59.566Z,97.00
2023-03-07T06:46:31.752Z,50.20
2023-03-07T06:49:02.397Z,35.10
2023-03-07T06:51:31.196Z,24.70
2023-03-07T06:54:02.430Z,25.80
2023-03-07T06:56:31.283Z,29.20
2023-03-07T06:58:59.988Z,31.00
2023-03-07T07:01:28.314Z,29.30
2023-03-07T07:03:58.208Z,24.70
2023-03-07T07:06:30.578Z,22.20
2023-03-07T07:08:58.994Z,22.30
2023-03-07T07:11:32.415Z,25.40
2023-03-07T07:14:01.642Z,26.10
2023-03-07T07:16:29.951Z,33.00
2023-03-07T07:18:58.073Z,27.90
2023-03-07T07:21:26.058Z,26.10
2023-03-07T07:23:56.734Z,24.50
2023-03-07T07:26:28.587Z,24.90
2023-03-07T07:28:58.040Z,27.20
2023-03-07T07:31:26.299Z,25.10
2023-03-07T07:33:54.730Z,24.90
2023-03-07T07:36:23.813Z,27.70
2023-03-07T07:38:57.967Z,25.10
2023-03-07T07:41:26.411Z,22.40
2023-03-07T07:43:55.782Z,22.50
2023-03-07T07:46:32.321Z,22.30
2023-03-07T07:49:00.463Z,23.00
2023-03-07T07:51:29.061Z,24.60
2023-03-07T07:53:57.525Z,23.90
2023-03-07T07:56:26.205Z,24.80
2023-03-07T07:58:55.898Z,22.60
2023-03-07T08:01:24.793Z,22.30
2023-03-07T08:03:53.735Z,24.00
2023-03-07T08:06:23.963Z,21.50
2023-03-07T08:08:52.463Z,23.00
2023-03-07T08:11:20.842Z,24.40
2023-03-07T08:13:49.825Z,23.40
2023-03-07T08:16:20.095Z,20.90
2023-03-07T08:18:53.399Z,22.40
2023-03-07T08:21:21.772Z,21.40
2023-03-07T08:23:49.800Z,22.50
2023-03-07T08:26:17.814Z,20.50
2023-03-07T08:28:46.683Z,22.60
2023-03-07T08:31:17.183Z,21.00
2023-03-07T08:33:56.461Z,21.80
2023-03-07T08:36:24.669Z,22.50
2023-03-07T08:38:59.230Z,19.20
2023-03-07T08:41:27.300Z,21.90
2023-03-07T08:43:55.275Z,20.40
2023-03-07T08:46:23.719Z,21.10
2023-03-07T08:48:51.665Z,23.00
2023-03-07T08:51:20.993Z,21.30
2023-03-07T08:53:49.478Z,19.10
2023-03-07T08:56:18.247Z,24.30
2023-03-07T08:58:46.378Z,20.70
2023-03-07T09:01:14.460Z,25.00
2023-03-07T09:03:42.720Z,24.50
2023-03-07T09:06:19.236Z,21.90
2023-03-07T09:08:47.788Z,23.60
2023-03-07T09:11:17.757Z,29.20
2023-03-07T09:13:51.960Z,23.50
2023-03-07T09:16:21.397Z,24.80
2023-03-07T09:18:50.127Z,23.70
2023-03-07T09:21:19.776Z,21.90
2023-03-07T09:23:48.050Z,23.10
2023-03-07T09:26:19.118Z,20.00
2023-03-07T09:28:47.368Z,22.90
2023-03-07T09:31:16.035Z,20.40
2023-03-07T09:33:46.950Z,20.90
2023-03-07T09:36:15.768Z,20.40
2023-03-07T09:38:44.124Z,23.60
2023-03-07T09:41:24.943Z,20.70
2023-03-07T09:44:07.983Z,20.30
2023-03-07T09:47:01.878Z,18.40
2023-03-07T09:49:34.655Z,20.30
2023-03-07T09:52:02.738Z,20.30
2023-03-07T09:54:42.975Z,20.40
2023-03-07T09:57:26.423Z,22.70
2023-03-07T10:00:31.691Z,21.90
2023-03-07T10:03:22.299Z,20.70
2023-03-07T10:05:51.785Z,19.50
2023-03-07T10:08:28.685Z,20.50
2023-03-07T10:11:16.278Z,17.50
2023-03-07T10:14:01.385Z,19.90
2023-03-07T10:16:46.256Z,20.00
2023-03-07T10:19:29.975Z,19.00
2023-03-07T10:22:27.446Z,21.40
2023-03-07T10:25:25.967Z,22.50
2023-03-07T10:27:59.993Z,20.10
2023-03-07T10:30:31.965Z,20.40
2023-03-07T10:33:01.726Z,20.30
2023-03-07T10:35:38.539Z,20.80
2023-03-07T10:38:19.685Z,22.20
2023-03-07T10:40:52.674Z,18.20
2023-03-07T10:43:26.060Z,21.60
2023-03-07T10:46:31.718Z,20.00
2023-03-07T10:49:13.735Z,23.20
2023-03-07T10:52:03.835Z,19.60
2023-03-07T10:54:35.646Z,19.90
2023-03-07T10:57:12.421Z,20.90
2023-03-07T10:59:45.000Z,21.20
2023-03-07T11:02:30.073Z,20.40
2023-03-07T11:04:58.133Z,18.80
2023-03-07T11:07:34.802Z,22.30
2023-03-07T11:10:27.863Z,21.60
2023-03-07T11:13:07.699Z,20.60
2023-03-07T11:15:35.999Z,21.30
2023-03-07T11:18:04.474Z,20.20
2023-03-07T11:20:49.773Z,18.20
2023-03-07T11:23:26.313Z,22.50
2023-03-07T11:25:56.384Z,22.00
2023-03-07T11:28:33.661Z,20.80
2023-03-07T11:31:01.826Z,22.20
2023-03-07T11:33:39.288Z,19.10
2023-03-07T11:36:30.778Z,21.10
2023-03-07T11:39:13.901Z,24.00
2023-03-07T11:41:52.444Z,20.80
2023-03-07T11:44:39.441Z,21.00
2023-03-07T11:47:22.640Z,20.10
2023-03-07T11:50:12.928Z,20.40
2023-03-07T11:52:57.239Z,19.70
2023-03-07T11:55:25.466Z,20.10
2023-03-07T11:58:31.401Z,26.20
2023-03-07T12:00:59.349Z,20.70
2023-03-07T12:03:46.477Z,19.40
2023-03-07T12:06:23.856Z,17.90
2023-03-07T12:09:31.554Z,19.60
2023-03-07T12:12:08.263Z,20.00
2023-03-07T12:14:42.332Z,21.90
2023-03-07T12:17:10.251Z,18.20
2023-03-07T12:20:18.968Z,18.60
2023-03-07T12:23:03.113Z,21.10
2023-03-07T12:25:40.240Z,20.90
2023-03-07T12:28:21.685Z,16.00
2023-03-07T12:31:14.966Z,16.50
2023-03-07T12:34:05.155Z,15.80
2023-03-07T12:36:35.532Z,17.60
2023-03-07T12:39:31.060Z,16.70
2023-03-07T12:42:04.936Z,18.80
2023-03-07T12:44:33.486Z,20.70
2023-03-07T12:47:42.238Z,19.30
2023-03-07T12:50:28.939Z,19.20
2023-03-07T12:53:10.399Z,15.30
2023-03-07T12:55:50.436Z,17.40
2023-03-07T12:58:38.546Z,19.00
2023-03-07T13:01:14.431Z,20.70
2023-03-07T13:04:04.278Z,18.00
2023-03-07T13:06:32.631Z,16.10
2023-03-07T13:09:01.660Z,14.00
2023-03-07T13:11:31.619Z,15.20
2023-03-07T13:14:06.795Z,14.10
2023-03-07T13:16:43.305Z,14.20
2023-03-07T13:19:30.735Z,15.30
2023-03-07T13:21:58.672Z,13.90
2023-03-07T13:24:40.107Z,13.90
2023-03-07T13:27:17.159Z,15.80
2023-03-07T13:30:09.882Z,14.50
2023-03-07T13:32:56.068Z,12.10
2023-03-07T13:35:28.342Z,13.00
2023-03-07T13:38:24.476Z,13.80
2023-03-07T13:41:00.372Z,13.40
2023-03-07T13:43:28.582Z,12.70
2023-03-07T13:46:03.977Z,13.50
2023-03-07T13:48:32.033Z,12.90
2023-03-07T13:51:00.187Z,12.80
2023-03-07T13:53:28.995Z,13.50
2023-03-07T13:56:00.193Z,11.70
2023-03-07T13:58:36.036Z,12.40
2023-03-07T14:01:07.001Z,13.50
2023-03-07T14:03:39.998Z,13.10
2023-03-07T14:06:15.054Z,11.90
2023-03-07T14:08:42.944Z,13.10
2023-03-07T14:11:58.641Z,13.70
2023-03-07T14:14:36.123Z,9.60
2023-03-07T14:17:36.969Z,12.20
2023-03-07T14:20:31.327Z,11.50
2023-03-07T14:23:31.515Z,12.60
2023-03-07T14:26:17.387Z,12.50
2023-03-07T14:28:50.366Z,11.00
2023-03-07T14:31:42.129Z,14.80
2023-03-07T14:34:41.701Z,11.40
2023-03-07T14:37:17.561Z,11.50
2023-03-07T14:40:19.946Z,16.50
2023-03-07T14:43:12.626Z,12.40
2023-03-07T14:46:06.922Z,12.50
2023-03-07T14:49:06.827Z,13.00
2023-03-07T14:51:37.210Z,13.80
2023-03-07T14:54:09.033Z,14.00
2023-03-07T14:56:38.068Z,11.90
2023-03-07T14:59:25.941Z,10.30
2023-03-07T15:01:56.947Z,13.80
2023-03-07T15:04:32.039Z,14.00
2023-03-07T15:07:06.328Z,11.30
2023-03-07T15:09:35.915Z,13.40
2023-03-07T15:12:24.124Z,14.50
2023-03-07T15:14:53.886Z,10.90
2023-03-07T15:17:30.805Z,11.40
2023-03-07T15:20:01.895Z,12.30
2023-03-07T15:22:32.035Z,14.30
2023-03-07T15:25:00.397Z,14.60
2023-03-07T15:27:31.484Z,12.00
2023-03-07T15:30:00.981Z,12.20
2023-03-07T15:32:36.616Z,14.20
2023-03-07T15:35:05.962Z,14.60
2023-03-07T15:37:34.478Z,13.20
2023-03-07T15:40:08.463Z,12.40
2023-03-07T15:42:49.966Z,14.20
2023-03-07T15:45:29.361Z,13.70
2023-03-07T15:47:57.855Z,14.10
2023-03-07T15:50:26.580Z,12.90
2023-03-07T15:52:59.116Z,12.90
2023-03-07T15:55:27.415Z,14.90
2023-03-07T15:58:03.518Z,12.60
2023-03-07T16:00:38.529Z,13.90
2023-03-07T16:03:29.375Z,12.70
2023-03-07T16:05:59.101Z,14.40
2023-03-07T16:08:29.006Z,15.80
2023-03-07T16:10:57.019Z,14.30
2023-03-07T16:13:31.527Z,14.80
2023-03-07T16:16:13.725Z,21.40
2023-03-07T16:18:42.169Z,18.50
2023-03-07T16:21:13.988Z,17.40
2023-03-07T16:23:44.296Z,18.20
2023-03-07T16:26:22.738Z,17.00
2023-03-07T16:28:51.580Z,16.60
2023-03-07T16:31:20.011Z,17.60
2023-03-07T16:33:48.709Z,22.40
2023-03-07T16:36:16.684Z,21.80
2023-03-07T16:38:44.766Z,23.10
2023-03-07T16:41:20.325Z,25.20
2023-03-07T16:43:57.978Z,27.20
2023-03-07T16:46:26.091Z,24.90
2023-03-07T16:48:54.122Z,24.80
2023-03-07T16:51:23.403Z,30.70
2023-03-07T16:53:51.751Z,30.90
2023-03-07T16:56:25.310Z,25.90
2023-03-07T16:58:53.382Z,28.20
2023-03-07T17:01:21.335Z,31.70
2023-03-07T17:03:49.415Z,28.80
2023-03-07T17:06:18.270Z,28.60
2023-03-07T17:08:47.130Z,31.70
2023-03-07T17:11:26.372Z,32.10
2023-03-07T17:13:59.184Z,28.90
2023-03-07T17:16:28.409Z,25.90
2023-03-07T17:18:56.478Z,27.80
2023-03-07T17:21:24.413Z,27.50
2023-03-07T17:23:52.494Z,28.00
2023-03-07T17:26:31.951Z,28.00
2023-03-07T17:29:08.173Z,26.60
2023-03-07T17:31:36.301Z,30.50
2023-03-07T17:34:05.795Z,28.60
2023-03-07T17:36:33.905Z,26.30
2023-03-07T17:39:02.068Z,28.70
2023-03-07T17:41:30.086Z,27.30
2023-03-07T17:44:03.368Z,25.50
2023-03-07T17:46:31.883Z,27.00
2023-03-07T17:48:59.857Z,27.40
2023-03-07T17:51:27.965Z,27.90
2023-03-07T17:53:56.746Z,26.80
2023-03-07T17:56:25.862Z,32.40
2023-03-07T17:58:53.811Z,30.20
2023-03-07T18:01:21.673Z,35.00
2023-03-07T18:03:49.692Z,39.50
2023-03-07T18:06:18.451Z,44.70
2023-03-07T18:08:46.743Z,37.60
2023-03-07T18:11:14.859Z,37.10
2023-03-07T18:13:46.491Z,39.50
2023-03-07T18:16:14.435Z,42.30
2023-03-07T18:18:57.707Z,43.20
2023-03-07T18:21:29.754Z,42.60
2023-03-07T18:23:58.039Z,50.50
2023-03-07T18:26:27.015Z,46.80
2023-03-07T18:28:56.308Z,41.90
2023-03-07T18:31:25.763Z,42.90
2023-03-07T18:33:57.341Z,46.60
2023-03-07T18:36:25.650Z,45.70
2023-03-07T18:38:53.569Z,47.50
2023-03-07T18:41:22.906Z,48.30
2023-03-07T18:43:52.263Z,51.80
2023-03-07T18:46:21.714Z,48.30
2023-03-07T18:48:49.866Z,55.10
2023-03-07T18:51:23.871Z,49.70
2023-03-07T18:53:53.062Z,56.90
2023-03-07T18:56:21.285Z,52.00
2023-03-07T18:58:55.689Z,55.30
2023-03-07T19:01:29.083Z,54.70
2023-03-07T19:04:00.218Z,58.10
2023-03-07T19:06:32.690Z,60.60
2023-03-07T19:09:03.011Z,52.20
2023-03-07T19:11:31.737Z,49.10
2023-03-07T19:14:00.925Z,50.40
2023-03-07T19:16:29.592Z,49.20
2023-03-07T19:19:00.180Z,50.00
2023-03-07T19:21:29.411Z,49.70
2023-03-07T19:23:59.097Z,55.50
2023-03-07T19:26:27.530Z,52.90
2023-03-07T19:28:56.481Z,52.40
2023-03-07T19:31:26.794Z,52.30
2023-03-07T19:33:55.962Z,58.00
2023-03-07T19:36:28.103Z,51.80
2023-03-07T19:38:57.991Z,56.80
2023-03-07T19:41:27.709Z,52.50
2023-03-07T19:43:56.948Z,55.60
2023-03-07T19:46:25.050Z,50.40
2023-03-07T19:48:53.235Z,54.10
2023-03-07T19:51:25.204Z,56.50
2023-03-07T19:53:56.790Z,61.80
2023-03-07T19:56:29.088Z,61.60
2023-03-07T19:58:58.239Z,68.60
2023-03-07T20:01:26.944Z,69.90
2023-03-07T20:03:55.463Z,69.30
2023-03-07T20:06:25.400Z,69.50
2023-03-07T20:08:54.088Z,74.60
2023-03-07T20:11:26.409Z,68.10
2023-03-07T20:13:56.718Z,73.10
2023-03-07T20:16:29.843Z,71.00
2023-03-07T20:18:59.895Z,66.00
2023-03-07T20:21:36.509Z,68.00
2023-03-07T20:24:06.981Z,73.40
2023-03-07T20:26:36.837Z,66.90
2023-03-07T20:29:05.848Z,66.90
2023-03-07T20:31:33.945Z,66.40
2023-03-07T20:34:03.108Z,59.70
2023-03-07T20:36:33.381Z,60.60
2023-03-07T20:39:03.344Z,62.30
2023-03-07T20:41:35.004Z,56.90
2023-03-07T20:44:04.698Z,60.60
2023-03-07T20:46:33.030Z,64.50
2023-03-07T20:49:01.828Z,64.30
2023-03-07T20:51:34.708Z,65.20
2023-03-07T20:54:08.959Z,78.00
2023-03-07T20:56:37.992Z,75.80
2023-03-07T20:59:12.503Z,75.20
2023-03-07T21:01:41.436Z,71.60
2023-03-07T21:04:12.347Z,68.10
2023-03-07T21:06:42.119Z,68.20
2023-03-07T21:09:11.203Z,63.20
2023-03-07T21:11:42.708Z,68.30
2023-03-07T21:14:12.182Z,62.70
2023-03-07T21:16:44.797Z,65.50
2023-03-07T21:19:12.905Z,55.80
2023-03-07T21:21:41.285Z,59.00
2023-03-07T21:24:12.050Z,63.60
2023-03-07T21:26:43.196Z,62.90
2023-03-07T21:29:13.322Z,65.90
2023-03-07T21:31:41.315Z,69.70
2023-03-07T21:34:13.263Z,71.80
2023-03-07T21:36:41.140Z,70.60
2023-03-07T21:39:11.120Z,69.60
2023-03-07T21:41:39.147Z,75.90
2023-03-07T21:44:07.339Z,70.30
2023-03-07T21:46:36.303Z,66.70
2023-03-07T21:49:04.320Z,70.00
2023-03-07T21:51:32.495Z,71.80
2023-03-07T21:54:00.874Z,70.70
2023-03-07T21:56:29.062Z,77.30
2023-03-07T21:58:57.267Z,80.70
2023-03-07T22:01:27.363Z,76.10
2023-03-07T22:03:56.718Z,77.90
2023-03-07T22:06:24.907Z,80.20
2023-03-07T22:08:53.121Z,76.50
2023-03-07T22:11:22.112Z,83.90
2023-03-07T22:13:52.064Z,81.10
2023-03-07T22:16:22.142Z,79.10
2023-03-07T22:18:55.023Z,74.70
2023-03-07T22:21:25.132Z,76.20
2023-03-07T22:24:00.229Z,72.50
2023-03-07T22:26:29.043Z,70.60
2023-03-07T22:28:57.374Z,71.70
2023-03-07T22:31:25.673Z,68.20
2023-03-07T22:33:54.299Z,60.80
2023-03-07T22:36:22.444Z,63.60
2023-03-07T22:38:56.715Z,62.30
2023-03-07T22:41:25.680Z,65.10
2023-03-07T22:43:53.969Z,59.40
2023-03-07T22:46:22.133Z,54.10
2023-03-07T22:48:55.814Z,52.70
2023-03-07T22:51:24.278Z,49.10
2023-03-07T22:53:54.219Z,47.30
2023-03-07T22:56:26.270Z,51.50
2023-03-07T22:58:58.581Z,50.90
2023-03-07T23:01:28.310Z,47.30
2023-03-07T23:03:57.703Z,51.00
2023-03-07T23:06:31.041Z,49.00
2023-03-07T23:08:59.976Z,46.10
2023-03-07T23:11:32.753Z,47.00
2023-03-07T23:14:00.858Z,49.60
2023-03-07T23:16:29.924Z,51.50
2023-03-07T23:18:59.284Z,42.00
2023-03-07T23:21:30.113Z,49.50
2023-03-07T23:23:59.649Z,41.50
2023-03-07T23:26:32.896Z,46.10
2023-03-07T23:29:01.981Z,45.90
2023-03-07T23:31:32.067Z,47.10
2023-03-07T23:34:01.468Z,45.10
2023-03-07T23:36:35.988Z,50.40
2023-03-07T23:39:04.159Z,47.50
2023-03-07T23:41:32.158Z,48.10
2023-03-07T23:44:01.302Z,42.60
2023-03-07T23:46:30.191Z,42.80
2023-03-07T23:48:59.566Z,46.30
2023-03-07T23:51:27.777Z,41.10
2023-03-07T23:53:55.761Z,41.30
2023-03-07T23:56:23.670Z,43.80
2023-03-07T23:58:51.959Z,37.50
